Terminal Aerodrome Forecast
Issued by NWS

Home | Current Version | Previous Version | Graphics & Text | Print | Product List | Glossary On
Versions: 1 2 3 4 5 6 7 8 9 10 11 12
000
FTUS42 KMHX 252322
TAFOAJ
TAF
KOAJ 252322Z 2600/2624 22011G20KT P6SM SCT060
     FM260200 28010G18KT P6SM SCT200
     FM260600 30007KT P6SM SKC
      AMD LTD TO CLD VIS AND WIND=

USA.gov is the U.S. government's official web portal to all federal, state and local government web resources and services.